Hauptseite
METAR-TAF:

METAR-TAF

Flughäfen :

Schenectady County Airport

Schenectady, New York, Vereinigte Staaten

Breite: 42-51N, Länge: 073-56W, Höhe: 115 m

Beobachtung

Neuester Wetterbericht von vor 4 Stunden und 9 Minuten, um 01:55 UTC
Windstille
Temperatur 20°C
Luftfeuchtigkeit 73%
Luftdruck 1005 hPa
Sichtweite: 24.1 km
Aufgelockert bewölkt in der Höhe von 3600 ft
Aufgelockert bewölkt in der Höhe von 12000 ft

METAR: KSCH 040155Z 00000KT 15SM SCT036 SCT120 20/15 A2967 RMK LAST

Zeit: 02:04 (06:04 UTC)


TAF: fehlend

Wetterbeobachtungen und Prognosen von mehr als 4000 Flughäfen (METAR und TAF Bericht).

Die verfügbaren Stationen werden durch gelbe und rote Markierungen auf der Karte dargestellt.

Führen Sie die Maus auf sie, um den Namen der Station zu sehen.

Darauf klicken, um die Beobachtung von Wetterbeobachtungen und Prognosen zu sehen.

Um die Karte zu ändern : klicken Sie auf den grünen Tasten mit einem schwarzen Kreuz Zum Vergrößern, auf den grünen Button mit einem Gedankenstrich zu verkleinern, oder auf die grünen Pfeile für benachbarte Karten.


METAR-TAF: